Time;durP1;ratioP1;P1;durP2;ratioP2;P2;SDS_P1;SDS_P2;PMS_P1;PMS_P2;Temp;Humidity;BMP_temperature;BMP_pressure;BME280_temperature;BME280_humidity;BME280_pressure;Samples;Min_cycle;Max_cycle;Signal;HPM_P1;HPM_P2
2022/12/26 00:01:54;;;;;;;2.90;2.50;;;;;;;10.09;100.00;98071.84;5093779;28;20246;-80
2022/12/26 00:04:22;;;;;;;3.07;2.70;;;;;;;10.18;100.00;98071.19;5092873;28;20233;-81
2022/12/26 00:06:49;;;;;;;3.00;2.50;;;;;;;10.19;100.00;98072.88;5090537;28;20210;-80
2022/12/26 00:09:16;;;;;;;2.80;2.33;;;;;;;10.22;100.00;98064.78;5093218;28;20204;-80
2022/12/26 00:11:42;;;;;;;4.57;2.70;;;;;;;10.21;100.00;98065.72;5093182;28;20289;-80
2022/12/26 00:14:11;;;;;;;2.50;2.30;;;;;;;10.23;100.00;98069.09;5093441;28;20230;-80
2022/12/26 00:16:39;;;;;;;4.27;2.47;;;;;;;10.28;99.31;98070.47;5093006;28;20210;-81
2022/12/26 00:19:07;;;;;;;4.07;2.57;;;;;;;10.37;98.57;98074.28;5092660;28;20667;-80
2022/12/26 00:21:34;;;;;;;4.57;2.47;;;;;;;10.40;98.24;98066.16;5093105;28;20239;-81
2022/12/26 00:24:02;;;;;;;2.90;2.60;;;;;;;10.45;97.52;98056.09;5092945;28;20270;-82
2022/12/26 00:26:30;;;;;;;2.30;2.10;;;;;;;10.47;97.79;98059.47;5092744;28;20206;-80
2022/12/26 00:28:57;;;;;;;2.77;2.47;;;;;;;10.49;97.79;98068.13;5092706;28;20209;-82
2022/12/26 00:31:26;;;;;;;2.53;2.30;;;;;;;10.53;97.71;98066.97;5093000;28;20210;-82
2022/12/26 00:33:54;;;;;;;3.00;2.60;;;;;;;10.46;98.40;98065.72;5092852;28;20233;-82
2022/12/26 00:36:23;;;;;;;3.50;2.40;;;;;;;10.41;99.58;98084.50;5105492;28;20213;-82
2022/12/26 00:38:51;;;;;;;3.90;2.47;;;;;;;10.40;100.00;98088.09;5112370;28;20202;-82
2022/12/26 00:41:20;;;;;;;2.60;2.37;;;;;;;10.36;100.00;98086.66;5110118;28;20228;-80
2022/12/26 00:43:46;;;;;;;4.70;2.50;;;;;;;10.27;100.00;98075.88;5093424;28;20210;-81
2022/12/26 00:46:13;;;;;;;3.00;2.40;;;;;;;10.26;100.00;98090.00;5093408;28;20210;-80
2022/12/26 00:48:40;;;;;;;3.80;2.70;;;;;;;10.17;100.00;98088.00;5093016;28;20210;-80
2022/12/26 00:51:06;;;;;;;3.03;2.60;;;;;;;10.13;100.00;98089.16;5092725;28;20207;-80
2022/12/26 00:53:34;;;;;;;3.07;2.23;;;;;;;10.04;100.00;98072.13;5092788;28;20210;-80
2022/12/26 00:56:01;;;;;;;3.20;2.60;;;;;;;10.03;100.00;98096.84;5092498;28;20227;-80
2022/12/26 00:58:27;;;;;;;2.67;2.37;;;;;;;9.88;100.00;98097.00;5093009;28;20725;-80
2022/12/26 01:00:55;;;;;;;2.90;2.60;;;;;;;9.76;100.00;98105.75;5092349;28;20207;-80
2022/12/26 01:03:21;;;;;;;2.40;2.20;;;;;;;9.73;100.00;98114.69;5092529;28;20203;-80
2022/12/26 01:05:50;;;;;;;4.13;2.70;;;;;;;9.67;100.00;98117.75;5092476;28;20226;-80
2022/12/26 01:08:17;;;;;;;2.93;2.63;;;;;;;9.70;100.00;98109.66;5092477;28;20215;-80
2022/12/26 01:10:46;;;;;;;2.10;1.90;;;;;;;9.69;100.00;98115.00;5092011;28;20217;-80
2022/12/26 01:13:12;;;;;;;2.60;2.40;;;;;;;9.60;100.00;98116.47;5092102;28;20219;-80
2022/12/26 01:15:39;;;;;;;3.50;2.20;;;;;;;9.54;100.00;98116.03;5092018;28;20227;-80
2022/12/26 01:18:06;;;;;;;3.07;2.43;;;;;;;9.47;100.00;98126.13;5092110;28;20230;-81
2022/12/26 01:20:33;;;;;;;3.87;2.70;;;;;;;9.43;100.00;98118.53;5091948;28;20213;-80
2022/12/26 01:22:59;;;;;;;2.97;2.27;;;;;;;9.39;100.00;98122.28;5091751;28;20233;-80
2022/12/26 01:25:26;;;;;;;4.27;2.97;;;;;;;9.40;100.00;98135.38;5091574;28;20328;-80
2022/12/26 01:27:54;;;;;;;3.03;2.60;;;;;;;9.38;100.00;98128.50;5092290;28;20206;-81
2022/12/26 01:30:20;;;;;;;4.13;2.57;;;;;;;9.34;100.00;98129.66;5092073;28;20211;-80
2022/12/26 01:32:46;;;;;;;2.43;2.23;;;;;;;9.29;100.00;98137.00;5092491;28;20205;-81
2022/12/26 01:35:13;;;;;;;3.67;2.80;;;;;;;9.24;100.00;98136.47;5091990;28;20236;-81
2022/12/26 01:37:39;;;;;;;2.77;2.40;;;;;;;9.25;100.00;98139.00;5092150;28;20690;-81
2022/12/26 01:40:07;;;;;;;3.90;2.93;;;;;;;9.20;100.00;98127.91;5091900;28;20250;-81
2022/12/26 01:42:37;;;;;;;2.77;2.50;;;;;;;9.12;100.00;98126.72;5091955;28;20233;-81
2022/12/26 01:45:17;;;;;;;2.57;2.37;;;;;;;9.07;100.00;98142.78;5092445;28;20226;-80
2022/12/26 01:47:49;;;;;;;2.50;2.30;;;;;;;9.06;100.00;98150.81;5091844;28;20217;-81
2022/12/26 01:50:26;;;;;;;2.90;2.50;;;;;;;9.05;100.00;98144.69;5091406;28;20214;-81
2022/12/26 01:52:56;;;;;;;2.97;2.63;;;;;;;9.08;100.00;98147.16;5091809;28;20206;-81
2022/12/26 01:55:23;;;;;;;3.27;2.57;;;;;;;9.05;100.00;98141.22;5091424;28;20243;-81
2022/12/26 01:57:55;;;;;;;4.53;2.80;;;;;;;9.03;100.00;98143.94;5091583;28;20210;-81
2022/12/26 02:00:23;;;;;;;3.03;2.63;;;;;;;9.12;100.00;98139.88;5091085;28;20239;-81
2022/12/26 02:05:34;;;;;;;3.30;2.53;;;;;;;9.19;100.00;98131.47;5091669;28;20312;-80
2022/12/26 02:08:03;;;;;;;2.47;2.23;;;;;;;9.15;100.00;98134.41;5091488;28;20239;-81
2022/12/26 02:10:33;;;;;;;3.10;2.40;;;;;;;9.15;100.00;98144.94;5094082;28;20262;-81
2022/12/26 02:13:00;;;;;;;2.57;2.10;;;;;;;9.20;100.00;98148.16;5097893;28;20207;-81
2022/12/26 02:15:29;;;;;;;2.83;2.43;;;;;;;9.24;100.00;98133.84;5097990;28;20284;-81
2022/12/26 02:17:55;;;;;;;4.20;2.50;;;;;;;9.29;100.00;98137.88;5097738;28;20706;-81
2022/12/26 02:20:24;;;;;;;2.83;2.37;;;;;;;9.22;100.00;98135.69;5097889;28;20418;-81
2022/12/26 02:23:26;;;;;;;3.60;2.50;;;;;;;9.22;100.00;98136.56;5097681;28;20222;-81
2022/12/26 02:26:38;;;;;;;2.30;2.10;;;;;;;9.20;100.00;98137.59;5097553;28;20229;-81
2022/12/26 02:29:39;;;;;;;2.80;2.47;;;;;;;9.13;100.00;98146.84;5070084;28;20212;-81
2022/12/26 02:32:15;;;;;;;2.77;2.40;;;;;;;9.12;100.00;98145.16;5098152;28;20207;-81
2022/12/26 02:34:52;;;;;;;3.27;2.50;;;;;;;9.11;100.00;98148.75;5097774;28;20224;-81
2022/12/26 02:37:28;;;;;;;3.20;2.20;;;;;;;9.18;100.00;98150.06;5097877;28;20206;-81
2022/12/26 02:40:09;;;;;;;2.70;2.33;;;;;;;9.26;100.00;98147.75;5097350;28;20209;-81
2022/12/26 02:42:47;;;;;;;3.53;2.20;;;;;;;9.33;100.00;98154.34;5097414;28;20223;-81
2022/12/26 02:48:12;;;;;;;2.67;2.23;;;;;;;9.50;100.00;98151.47;5097570;28;20227;-81
2022/12/26 03:13:35;;;;;;;3.43;2.40;;;;;;;9.51;100.00;98132.03;5096565;28;20194;-82
2022/12/26 03:18:53;;;;;;;2.87;2.00;;;;;;;9.44;100.00;98114.94;5096290;28;20590;-80
2022/12/26 03:21:25;;;;;;;1.97;1.77;;;;;;;9.45;100.00;98119.25;5095062;28;20218;-82
2022/12/26 03:23:54;;;;;;;2.20;2.00;;;;;;;9.42;100.00;98122.09;5092896;28;20231;-82
2022/12/26 03:26:40;;;;;;;2.70;2.30;;;;;;;9.39;100.00;98135.47;5093357;28;20207;-82
2022/12/26 03:31:54;;;;;;;3.23;2.00;;;;;;;9.37;100.00;98118.91;5093292;28;20205;-81
2022/12/26 03:34:21;;;;;;;3.37;2.27;;;;;;;9.38;100.00;98110.91;5093181;28;20604;-82
2022/12/26 03:37:14;;;;;;;2.43;2.23;;;;;;;9.39;100.00;98114.38;5093057;28;20209;-81
2022/12/26 04:19:56;;;;;;;8.80;2.53;;;;;;;10.46;100.00;98078.94;5092883;28;20251;-81
2022/12/26 04:45:02;;;;;;;2.43;2.00;;;;;;;10.41;100.00;98118.03;5092888;28;20228;-82
2022/12/26 04:47:30;;;;;;;2.50;2.30;;;;;;;10.41;100.00;98116.22;5092621;28;20218;-81
2022/12/26 04:50:11;;;;;;;3.10;2.20;;;;;;;10.42;100.00;98101.22;5092471;28;20230;-82
2022/12/26 04:52:58;;;;;;;2.47;2.27;;;;;;;10.45;100.00;98088.63;5092397;28;20615;-81
2022/12/26 04:55:25;;;;;;;2.30;2.10;;;;;;;10.46;100.00;98087.69;5092357;28;20262;-81
2022/12/26 04:57:52;;;;;;;2.30;2.10;;;;;;;10.43;100.00;98087.06;5092942;28;20296;-81
2022/12/26 05:00:20;;;;;;;2.37;2.00;;;;;;;10.37;100.00;98092.75;5092293;28;20207;-80
2022/12/26 05:11:08;;;;;;;2.57;2.00;;;;;;;10.42;100.00;98102.06;5092385;28;20243;-80
2022/12/26 05:13:35;;;;;;;2.77;2.30;;;;;;;10.42;100.00;98106.50;5092147;28;20218;-81
2022/12/26 05:29:43;;;;;;;2.57;2.30;;;;;;;10.71;100.00;98063.88;5091965;28;20254;-81
2022/12/26 05:32:10;;;;;;;3.17;2.20;;;;;;;10.73;99.67;98069.91;5092115;28;20217;-81
2022/12/26 05:34:36;;;;;;;2.43;2.00;;;;;;;10.78;100.00;98074.88;5091876;28;20226;-80
2022/12/26 05:37:02;;;;;;;2.00;1.70;;;;;;;10.79;99.06;98068.63;5091882;28;20222;-81
2022/12/26 05:39:29;;;;;;;2.23;2.03;;;;;;;10.81;98.77;98061.41;5091569;28;20215;-81
2022/12/26 05:41:55;;;;;;;2.57;1.87;;;;;;;10.87;98.28;98075.06;5091931;28;20219;-81
2022/12/26 05:44:22;;;;;;;2.23;2.03;;;;;;;10.89;97.55;98074.94;5091593;28;20237;-81
2022/12/26 05:46:48;;;;;;;4.07;1.97;;;;;;;10.88;97.67;98081.19;5091602;28;20218;-81
2022/12/26 05:49:16;;;;;;;2.50;1.87;;;;;;;10.85;97.94;98081.41;5091484;28;20221;-81
2022/12/26 05:51:42;;;;;;;2.30;2.10;;;;;;;10.87;97.21;98082.13;5091618;28;20213;-81
2022/12/26 05:54:09;;;;;;;2.50;2.20;;;;;;;10.83;97.06;98080.69;5109110;22;20246;-82
2022/12/26 05:56:35;;;;;;;3.73;2.10;;;;;;;10.87;95.94;98072.41;5090341;28;20236;-82
2022/12/26 05:59:02;;;;;;;2.50;2.23;;;;;;;10.86;96.60;98075.16;5091051;28;20210;-83
2022/12/26 06:01:29;;;;;;;3.53;2.07;;;;;;;10.84;97.49;98085.00;5091486;28;20206;-83
2022/12/26 06:03:58;;;;;;;2.30;1.70;;;;;;;10.83;98.11;98081.50;5091317;28;20234;-84
2022/12/26 06:06:27;;;;;;;2.70;2.10;;;;;;;10.82;99.05;98095.69;5091474;28;20342;-83
2022/12/26 06:08:55;;;;;;;2.47;1.70;;;;;;;10.82;99.57;98106.25;5091238;28;20207;-84
2022/12/26 06:11:24;;;;;;;2.20;2.00;;;;;;;10.77;100.00;98102.25;5091518;28;20209;-83
2022/12/26 06:13:51;;;;;;;2.83;1.83;;;;;;;10.80;100.00;98107.31;5091543;28;20207;-83
2022/12/26 06:16:18;;;;;;;2.33;1.90;;;;;;;10.78;100.00;98109.22;5091202;28;20753;-82
2022/12/26 06:18:45;;;;;;;2.40;1.90;;;;;;;10.76;100.00;98111.16;5091170;28;20206;-81
2022/12/26 06:21:14;;;;;;;1.87;1.77;;;;;;;10.74;100.00;98110.38;5091274;28;20208;-80
2022/12/26 06:23:42;;;;;;;2.93;2.03;;;;;;;10.73;100.00;98132.50;5093543;28;20233;-82
2022/12/26 06:26:11;;;;;;;2.20;2.00;;;;;;;10.70;100.00;98122.16;5115492;28;20228;-88
2022/12/26 06:28:39;;;;;;;4.57;2.57;;;;;;;10.75;100.00;98114.72;5108571;28;20207;-83
2022/12/26 06:31:07;;;;;;;2.80;1.87;;;;;;;10.74;100.00;98107.75;5091687;28;20209;-82
2022/12/26 06:33:33;;;;;;;2.47;2.20;;;;;;;10.74;100.00;98113.03;5091103;28;20206;-83
2022/12/26 06:36:05;;;;;;;2.33;1.83;;;;;;;10.73;100.00;98121.91;5090927;28;20229;-81
2022/12/26 06:38:32;;;;;;;2.63;2.23;;;;;;;10.72;100.00;98117.59;5091132;28;20211;-86
2022/12/26 06:41:00;;;;;;;2.73;2.07;;;;;;;10.71;100.00;98118.56;5090815;28;20220;-84
2022/12/26 06:43:27;;;;;;;3.03;2.10;;;;;;;10.71;100.00;98118.56;5091071;28;20239;-80
2022/12/26 06:45:55;;;;;;;2.37;1.80;;;;;;;10.69;100.00;98105.44;5091238;28;20234;-81
2022/12/26 06:48:21;;;;;;;2.40;2.20;;;;;;;10.70;100.00;98114.22;5091075;28;20204;-82
2022/12/26 06:50:48;;;;;;;2.73;1.97;;;;;;;10.65;100.00;98106.59;5090688;28;20670;-83
2022/12/26 06:53:14;;;;;;;2.40;1.90;;;;;;;10.68;100.00;98118.75;5091183;28;20199;-82
2022/12/26 06:55:41;;;;;;;2.70;2.10;;;;;;;10.68;100.00;98119.59;5090875;28;20243;-82
2022/12/26 06:58:09;;;;;;;3.33;2.20;;;;;;;10.69;100.00;98125.72;5094835;28;20210;-83
2022/12/26 07:00:36;;;;;;;2.20;2.00;;;;;;;10.69;100.00;98131.00;5094373;28;20214;-83
2022/12/26 07:03:02;;;;;;;2.17;2.00;;;;;;;10.66;100.00;98137.38;5095046;28;20568;-83
2022/12/26 07:05:29;;;;;;;2.47;2.00;;;;;;;10.74;100.00;98136.81;5094833;28;20315;-82
2022/12/26 07:07:55;;;;;;;2.70;2.03;;;;;;;10.72;100.00;98131.66;5094643;28;20221;-82
2022/12/26 07:10:22;;;;;;;2.93;2.00;;;;;;;10.67;100.00;98117.06;5094398;28;20202;-82
2022/12/26 07:12:49;;;;;;;3.03;2.10;;;;;;;10.68;100.00;98124.03;5094553;28;20225;-83
2022/12/26 07:15:17;;;;;;;2.67;1.90;;;;;;;10.66;100.00;98128.59;5094385;28;20240;-84
2022/12/26 07:17:43;;;;;;;2.20;2.00;;;;;;;10.66;100.00;98142.66;5094331;28;20530;-78
2022/12/26 07:20:11;;;;;;;2.70;2.20;;;;;;;10.66;100.00;98141.81;5093975;28;20212;-77
2022/12/26 07:22:37;;;;;;;3.33;2.03;;;;;;;10.63;100.00;98131.44;5094383;28;20227;-77
2022/12/26 07:25:05;;;;;;;3.80;2.40;;;;;;;10.57;100.00;98137.13;5094394;28;20325;-80
2022/12/26 07:27:31;;;;;;;1.90;1.73;;;;;;;10.54;100.00;98150.59;5094141;28;20689;-81
2022/12/26 07:29:58;;;;;;;2.10;1.87;;;;;;;10.52;100.00;98153.31;5090750;28;20210;-80
2022/12/26 07:32:27;;;;;;;2.80;2.03;;;;;;;10.50;100.00;98162.31;5094222;28;20236;-81
2022/12/26 07:34:53;;;;;;;3.23;2.60;;;;;;;10.49;100.00;98157.97;5094720;28;20230;-81
2022/12/26 07:37:20;;;;;;;2.33;2.13;;;;;;;10.45;100.00;98143.31;5093441;28;20681;-77
2022/12/26 07:39:46;;;;;;;4.07;2.40;;;;;;;10.44;100.00;98157.44;5093351;28;20211;-78
2022/12/26 07:42:13;;;;;;;2.17;1.97;;;;;;;10.45;100.00;98151.22;5094010;28;20207;-77
2022/12/26 07:44:39;;;;;;;2.57;2.30;;;;;;;10.45;100.00;98143.31;5091894;28;20237;-75
2022/12/26 07:47:06;;;;;;;3.20;2.50;;;;;;;10.46;100.00;98158.19;5092204;28;20206;-75
2022/12/26 07:49:33;;;;;;;2.43;2.20;;;;;;;10.45;100.00;98170.56;5093624;28;20314;-76
2022/12/26 07:52:01;;;;;;;3.60;2.53;;;;;;;10.49;100.00;98171.19;5092922;28;20655;-80
2022/12/26 07:54:28;;;;;;;2.30;2.10;;;;;;;10.47;100.00;98151.97;5091284;28;20647;-81
2022/12/26 07:56:56;;;;;;;3.00;2.07;;;;;;;10.47;100.00;98157.25;5093624;28;20203;-80
2022/12/26 07:59:22;;;;;;;2.77;2.30;;;;;;;10.51;100.00;98159.56;5093101;28;20712;-79
2022/12/26 08:01:49;;;;;;;3.50;2.40;;;;;;;10.53;100.00;98167.41;5091610;28;20221;-80
2022/12/26 08:04:15;;;;;;;2.37;2.10;;;;;;;10.53;100.00;98176.16;5093250;28;20232;-80
2022/12/26 08:06:45;;;;;;;2.40;2.17;;;;;;;10.55;100.00;98176.06;5093546;28;20221;-80
2022/12/26 08:09:14;;;;;;;2.30;2.10;;;;;;;10.55;100.00;98176.06;5089763;28;20210;-83
2022/12/26 08:11:41;;;;;;;3.63;2.50;;;;;;;10.57;100.00;98179.41;5092749;28;20248;-83
2022/12/26 08:14:10;;;;;;;2.83;2.30;;;;;;;10.55;100.00;98168.13;5093613;28;20216;-83
2022/12/26 08:16:36;;;;;;;3.23;2.40;;;;;;;10.53;100.00;98162.09;5092189;28;20209;-83
2022/12/26 08:19:03;;;;;;;3.10;2.80;;;;;;;10.50;100.00;98175.50;5095102;28;20758;-85
2022/12/26 08:21:30;;;;;;;3.53;2.80;;;;;;;10.51;100.00;98183.34;5103499;28;20218;-82
2022/12/26 08:23:58;;;;;;;2.43;2.23;;;;;;;10.45;100.00;98177.66;5098280;28;20234;-85
2022/12/26 08:26:24;;;;;;;3.50;2.33;;;;;;;10.43;100.00;98190.09;5091137;28;20205;-85
2022/12/26 08:28:51;;;;;;;2.87;2.17;;;;;;;10.41;100.00;98192.84;5093153;28;20210;-82
2022/12/26 08:31:19;;;;;;;2.97;2.00;;;;;;;10.43;100.00;98203.31;5093383;28;20245;-82
2022/12/26 08:33:46;;;;;;;4.13;2.60;;;;;;;10.47;100.00;98200.34;5091880;28;20204;-81
2022/12/26 08:36:15;;;;;;;2.43;2.23;;;;;;;10.52;100.00;98208.81;5091415;28;20229;-80
2022/12/26 08:38:42;;;;;;;3.40;2.17;;;;;;;10.52;100.00;98213.28;5091896;28;20207;-80
2022/12/26 08:41:10;;;;;;;4.30;2.77;;;;;;;10.49;100.00;98218.75;5091685;28;20218;-82
2022/12/26 08:43:37;;;;;;;3.93;2.23;;;;;;;10.49;100.00;98224.03;5085120;28;20224;-82
2022/12/26 08:46:05;;;;;;;3.67;2.20;;;;;;;10.46;100.00;98234.81;5090724;28;20737;-80
2022/12/26 08:48:32;;;;;;;3.17;2.33;;;;;;;10.48;100.00;98238.19;5089270;28;20219;-80
2022/12/26 08:51:01;;;;;;;2.97;2.40;;;;;;;10.51;100.00;98249.41;5085648;28;20217;-80
2022/12/26 08:53:28;;;;;;;4.70;2.80;;;;;;;10.49;100.00;98250.47;5070926;28;20206;-81
2022/12/26 08:55:56;;;;;;;3.57;2.37;;;;;;;10.46;100.00;98258.59;5071633;28;20293;-81
2022/12/26 08:58:24;;;;;;;3.27;2.90;;;;;;;10.44;100.00;98265.75;5072549;28;20210;-80
2022/12/26 09:00:51;;;;;;;3.47;2.80;;;;;;;10.35;100.00;98274.31;5075222;28;20211;-80
2022/12/26 09:03:17;;;;;;;3.47;3.17;;;;;;;10.31;100.00;98293.94;5073818;28;20446;-79
2022/12/26 09:05:44;;;;;;;6.10;4.65;;;;;;;10.10;100.00;98311.19;5072437;28;20358;-79
2022/12/26 09:08:11;;;;;;;7.33;6.00;;;;;;;9.90;100.00;98325.63;5071360;28;20226;-82
2022/12/26 09:10:38;;;;;;;7.37;6.10;;;;;;;9.78;100.00;98326.41;5070922;28;20217;-80
2022/12/26 09:13:04;;;;;;;7.37;6.40;;;;;;;9.66;100.00;98332.44;5071489;28;20217;-81
2022/12/26 09:15:32;;;;;;;6.23;4.60;;;;;;;9.63;100.00;98329.16;5070917;28;20227;-80
2022/12/26 09:17:59;;;;;;;5.90;4.57;;;;;;;9.63;100.00;98337.06;5071012;28;20217;-80
2022/12/26 09:20:25;;;;;;;4.37;3.70;;;;;;;9.63;100.00;98326.53;5070042;28;20211;-81
2022/12/26 09:22:53;;;;;;;6.53;3.97;;;;;;;9.66;100.00;98335.09;5091342;28;20204;-80
2022/12/26 09:25:21;;;;;;;5.37;4.27;;;;;;;9.68;100.00;98335.00;5081066;28;20234;-80
2022/12/26 09:27:48;;;;;;;6.27;4.40;;;;;;;9.69;100.00;98341.97;5082739;28;20345;-80
2022/12/26 09:30:15;;;;;;;7.20;5.00;;;;;;;9.66;100.00;98347.47;5090962;28;20215;-81
2022/12/26 09:32:43;;;;;;;5.80;4.10;;;;;;;9.72;100.00;98336.53;5090983;28;20210;-79
2022/12/26 09:35:10;;;;;;;7.77;5.10;;;;;;;9.67;100.00;98343.88;5071719;28;20276;-80
2022/12/26 09:37:36;;;;;;;6.07;4.27;;;;;;;9.63;100.00;98347.63;5070365;28;20210;-79
2022/12/26 09:40:04;;;;;;;5.03;4.33;;;;;;;9.61;100.00;98355.63;5073166;28;20216;-80
2022/12/26 09:42:38;;;;;;;7.73;4.70;;;;;;;9.64;100.00;98365.16;5070481;28;20213;-80
2022/12/26 09:45:11;;;;;;;8.43;5.13;;;;;;;9.60;100.00;98366.31;5081741;28;20231;-80
2022/12/26 09:47:49;;;;;;;7.10;4.90;;;;;;;9.55;100.00;98392.94;5090135;28;20220;-80
2022/12/26 09:50:24;;;;;;;5.30;4.50;;;;;;;9.56;100.00;98392.03;5090703;28;20214;-81
2022/12/26 09:52:54;;;;;;;6.50;5.20;;;;;;;9.53;100.00;98388.72;5090665;28;20212;-79
2022/12/26 09:55:37;;;;;;;8.10;5.70;;;;;;;9.50;100.00;98388.91;5066933;28;20326;-81
2022/12/26 09:58:13;;;;;;;7.03;5.60;;;;;;;9.50;100.00;98370.44;5087774;28;20737;-81
2022/12/26 10:00:49;;;;;;;6.27;5.03;;;;;;;9.53;100.00;98372.88;5090486;28;20292;-80
2022/12/26 10:03:18;;;;;;;6.57;4.07;;;;;;;9.58;100.00;98379.59;5088749;28;20212;-80
2022/12/26 10:05:59;;;;;;;5.87;3.80;;;;;;;9.56;100.00;98373.56;5090189;28;20288;-79
2022/12/26 10:08:48;;;;;;;6.17;4.50;;;;;;;9.58;100.00;98391.91;5091132;28;20212;-80
2022/12/26 10:11:24;;;;;;;7.37;4.23;;;;;;;9.57;100.00;98390.22;5091443;28;20312;-81
2022/12/26 10:13:59;;;;;;;6.73;5.07;;;;;;;9.58;100.00;98391.91;5091279;28;20208;-80
2022/12/26 10:16:41;;;;;;;6.33;4.63;;;;;;;9.58;100.00;98382.22;5091033;28;20235;-78
2022/12/26 10:19:17;;;;;;;5.57;4.10;;;;;;;9.57;100.00;98364.69;5090793;28;20220;-79
2022/12/26 10:21:54;;;;;;;4.20;3.43;;;;;;;9.53;100.00;98349.13;5091238;28;20215;-80
2022/12/26 10:24:23;;;;;;;6.23;3.80;;;;;;;9.53;100.00;98362.31;5090863;28;20239;-79
2022/12/26 10:26:56;;;;;;;5.03;3.53;;;;;;;9.55;100.00;98368.38;5091011;28;20210;-79
2022/12/26 10:29:27;;;;;;;5.13;3.50;;;;;;;9.54;100.00;98369.31;5090684;28;20209;-79
2022/12/26 10:31:58;;;;;;;5.27;3.67;;;;;;;9.55;100.00;98363.94;5093267;28;20221;-79
2022/12/26 10:34:29;;;;;;;6.37;3.40;;;;;;;9.59;100.00;98369.88;5095219;28;20261;-80
2022/12/26 10:37:00;;;;;;;4.00;2.97;;;;;;;9.59;100.00;98367.22;5095152;28;20210;-78
2022/12/26 10:39:33;;;;;;;5.07;4.20;;;;;;;9.60;100.00;98371.59;5094731;28;20544;-79
2022/12/26 10:42:04;;;;;;;4.97;3.67;;;;;;;9.55;100.00;98378.94;5076410;28;20209;-79
2022/12/26 10:44:30;;;;;;;7.37;4.60;;;;;;;9.54;100.00;98374.59;5074030;28;20258;-79
2022/12/26 10:47:07;;;;;;;6.20;4.23;;;;;;;9.53;100.00;98384.28;5090588;28;20211;-79
2022/12/26 10:49:35;;;;;;;6.43;4.43;;;;;;;9.54;100.00;98382.50;5094821;28;20212;-80
2022/12/26 10:52:03;;;;;;;7.03;4.40;;;;;;;9.51;100.00;98385.31;5094834;28;20214;-78
2022/12/26 10:54:30;;;;;;;5.77;4.23;;;;;;;9.49;100.00;98397.78;5092636;28;20239;-81
2022/12/26 10:57:00;;;;;;;6.00;4.37;;;;;;;9.50;100.00;98388.91;5095585;28;20442;-82
2022/12/26 10:59:38;;;;;;;6.80;4.60;;;;;;;9.49;100.00;98390.69;5081532;28;20209;-83
2022/12/26 11:02:14;;;;;;;7.00;4.53;;;;;;;9.51;100.00;98393.25;5074619;28;20204;-81
2022/12/26 11:04:57;;;;;;;6.40;4.37;;;;;;;9.53;100.00;98393.97;5078890;28;20243;-79
2022/12/26 11:07:26;;;;;;;4.93;3.30;;;;;;;9.61;100.00;98394.38;5081977;28;20210;-79
2022/12/26 11:09:54;;;;;;;4.87;3.60;;;;;;;9.57;100.00;98375.25;5084859;28;20208;-80
2022/12/26 11:12:24;;;;;;;3.43;2.87;;;;;;;9.57;100.00;98367.34;5086670;28;20306;-80
2022/12/26 11:14:57;;;;;;;3.80;3.03;;;;;;;9.58;100.00;98354.97;5085493;28;20228;-80
2022/12/26 11:17:27;;;;;;;3.60;2.80;;;;;;;9.56;100.00;98377.97;5088045;28;20204;-80
2022/12/26 11:22:47;;;;;;;4.33;3.50;;;;;;;9.59;100.00;98361.94;5089357;28;20561;-83
2022/12/26 11:25:20;;;;;;;5.63;3.57;;;;;;;9.58;100.00;98345.28;5089343;28;20237;-84
2022/12/26 11:27:48;;;;;;;4.47;3.43;;;;;;;9.63;100.00;98347.63;5089499;28;20538;-82
2022/12/26 11:30:22;;;;;;;4.63;3.47;;;;;;;9.63;100.00;98345.00;5089115;28;20214;-80
2022/12/26 11:33:03;;;;;;;3.30;2.90;;;;;;;9.66;100.00;98327.19;5089850;28;20216;-78
2022/12/26 11:35:35;;;;;;;4.17;3.20;;;;;;;9.66;100.00;98336.91;5089435;28;20257;-80
2022/12/26 11:38:05;;;;;;;3.73;2.90;;;;;;;9.69;100.00;98341.97;5088893;28;20219;-77
2022/12/26 11:40:36;;;;;;;4.83;3.40;;;;;;;9.73;100.00;98362.78;5088772;28;20205;-76
2022/12/26 11:43:06;;;;;;;3.80;2.73;;;;;;;9.75;100.00;98367.97;5088666;28;20202;-79
2022/12/26 11:45:38;;;;;;;4.23;2.73;;;;;;;9.73;100.00;98367.25;5088758;28;20233;-78
2022/12/26 11:48:17;;;;;;;3.97;3.07;;;;;;;9.72;100.00;98363.75;5088997;28;20229;-79
2022/12/26 11:50:45;;;;;;;4.83;2.73;;;;;;;9.75;100.00;98378.53;5088910;28;20211;-79
2022/12/26 11:53:16;;;;;;;3.50;2.37;;;;;;;9.75;100.00;98367.97;5088954;28;20204;-83
2022/12/26 11:55:43;;;;;;;1.97;1.77;;;;;;;9.81;100.00;98352.63;5092637;22;20324;-79
2022/12/26 11:58:19;;;;;;;1.80;1.30;;;;;;;9.79;100.00;98348.38;5068557;28;20220;-79
2022/12/26 12:01:12;;;;;;;1.40;1.30;;;;;;;9.72;100.00;98355.81;5067842;28;20210;-78
2022/12/26 12:03:41;;;;;;;1.40;1.30;;;;;;;9.70;100.00;98352.44;5068953;28;20218;-79
2022/12/26 12:06:22;;;;;;;2.13;1.20;;;;;;;9.70;100.00;98354.22;5069171;28;20226;-79
2022/12/26 12:08:57;;;;;;;2.47;1.73;;;;;;;9.71;100.00;98338.28;5069463;28;20582;-79
2022/12/26 12:11:34;;;;;;;4.43;3.40;;;;;;;9.70;100.00;98335.75;5084304;28;20188;-80
2022/12/26 12:14:13;;;;;;;4.47;2.13;;;;;;;9.74;100.00;98340.72;5080637;28;20217;-79
2022/12/26 12:16:56;;;;;;;2.67;2.37;;;;;;;9.81;100.00;98343.84;5069238;28;20245;-79
2022/12/26 12:19:45;;;;;;;3.23;2.43;;;;;;;9.88;100.00;98353.94;5067952;28;20210;-79
2022/12/26 12:22:27;;;;;;;1.83;1.43;;;;;;;9.93;100.00;98366.84;5068347;28;20257;-79
2022/12/26 12:25:30;;;;;;;1.40;1.27;;;;;;;9.95;100.00;98368.44;5068467;28;20226;-80
2022/12/26 12:28:04;;;;;;;2.03;1.20;;;;;;;9.97;100.00;98368.34;5025244;28;20210;-80
2022/12/26 12:30:38;;;;;;;1.57;0.90;;;;;;;10.02;100.00;98360.97;5067939;28;20214;-80
2022/12/26 12:33:25;;;;;;;0.87;0.87;;;;;;;10.07;100.00;98358.91;5060972;28;20199;-80
2022/12/26 12:36:03;;;;;;;1.27;0.90;;;;;;;10.07;100.00;98358.91;5055549;28;20228;-80
2022/12/26 12:38:32;;;;;;;0.70;0.70;;;;;;;10.10;100.00;98353.47;5055385;28;20217;-80
2022/12/26 12:41:17;;;;;;;0.80;0.73;;;;;;;10.07;100.00;98361.56;5054994;28;20226;-80
2022/12/26 12:43:54;;;;;;;0.80;0.67;;;;;;;10.05;100.00;98355.53;5055200;28;20220;-80
2022/12/26 12:46:35;;;;;;;0.97;0.77;;;;;;;10.01;100.00;98349.56;5055451;28;20744;-80
2022/12/26 12:49:18;;;;;;;1.10;0.90;;;;;;;10.03;100.00;98352.13;5054884;28;20216;-81
2022/12/26 12:51:54;;;;;;;0.80;0.73;;;;;;;10.06;100.00;98346.66;5054028;28;20207;-80
2022/12/26 12:54:51;;;;;;;1.60;0.87;;;;;;;10.08;100.00;98352.69;5053752;28;20228;-80
2022/12/26 12:57:27;;;;;;;1.00;0.90;;;;;;;10.05;100.00;98348.47;5053738;28;20588;-80
2022/12/26 13:00:10;;;;;;;1.53;1.20;;;;;;;10.06;100.00;98351.94;5053483;28;20217;-80
2022/12/26 13:02:43;;;;;;;1.10;0.70;;;;;;;10.07;100.00;98358.91;5051963;28;20224;-80
2022/12/26 13:05:20;;;;;;;1.20;1.10;;;;;;;10.09;100.00;98351.75;5051733;28;20340;-80
2022/12/26 13:07:52;;;;;;;1.50;1.10;;;;;;;10.08;100.00;98350.03;5053808;28;20207;-80
2022/12/26 13:10:23;;;;;;;2.23;1.07;;;;;;;10.08;100.00;98339.47;5052270;28;20216;-80
2022/12/26 13:12:53;;;;;;;1.90;1.53;;;;;;;10.08;100.00;98350.03;5051516;28;20291;-80
2022/12/26 13:15:28;;;;;;;1.40;1.30;;;;;;;10.10;100.00;98334.97;5053194;28;20229;-80
2022/12/26 13:18:00;;;;;;;2.50;1.90;;;;;;;10.06;100.00;98349.31;5053233;28;20207;-80
2022/12/26 13:20:34;;;;;;;2.30;1.70;;;;;;;10.07;100.00;98348.34;5053058;28;20208;-80
2022/12/26 13:26:05;;;;;;;2.40;1.90;;;;;;;10.04;100.00;98338.00;5053178;28;20709;-80
2022/12/26 13:28:39;;;;;;;1.40;1.23;;;;;;;10.02;100.00;98324.00;5053243;28;20193;-80
2022/12/26 13:31:06;;;;;;;1.30;1.13;;;;;;;10.07;100.00;98319.31;5052786;28;20692;-80
2022/12/26 13:33:34;;;;;;;1.50;1.03;;;;;;;10.10;100.00;98319.13;5052958;28;20208;-80
2022/12/26 13:36:02;;;;;;;1.60;1.50;;;;;;;10.09;100.00;98315.63;5052678;28;20722;-80
2022/12/26 13:39:00;;;;;;;1.63;1.10;;;;;;;10.09;100.00;98318.25;5052632;28;20217;-80
2022/12/26 13:44:26;;;;;;;1.30;0.90;;;;;;;10.15;100.00;98323.16;5051810;28;20261;-80
2022/12/26 13:46:56;;;;;;;1.20;1.10;;;;;;;10.19;100.00;98326.44;5052475;28;20633;-80
2022/12/26 13:49:29;;;;;;;0.90;0.90;;;;;;;10.19;100.00;98310.59;5052282;28;20829;-80
2022/12/26 13:52:21;;;;;;;1.37;0.90;;;;;;;10.23;100.00;98318.25;5052770;28;20220;-80
2022/12/26 13:55:20;;;;;;;1.20;0.80;;;;;;;10.24;100.00;98303.22;5052111;28;20648;-80